Terminal Aerodrome Forecast
Issued by NWS Wichita, KS

Home | Current Version | Previous Version | Graphics & Text | Print | Product List | Glossary On
Versions: 1 2 3 4 5 6 7 8 9 10 11 12 13 14 15 16 17 18 19 20 21 22 23 24
000
FTUS43 KICT 190520
TAFICT
TAF
KICT 190520Z 1906/2006 17009KT P6SM BKN050
     FM191400 17013KT P6SM SCT070
     FM191700 18017G26KT P6SM SCT100
     FM192000 18025G35KT P6SM SCT100=

USA.gov is the U.S. government's official web portal to all federal, state and local government web resources and services.